Skopje-Zajcevrid, Macedonia

4:27 PM CEST on October 22, 2014 (GMT +0200)
Skopje | Change Station
CLOSE
Current Station
Airport
Location: Skopje-Petrovec,
Elevation: 784 ft
Nearby Weather Stations

Elev 784 ft 41.97 °N, 21.65 °E | Updated 27 minutes ago

Mostly Cloudy
Mostly Cloudy
66 °F
Feels Like 66 °F
N
15
Wind Variable Wind from SE

Today
High -- | Low -- °F
--% Chance of Precip.
Yesterday
High -- | Low -- °F
Precip. -- in
6:54 AM 5:42 PM
Waning Crescent, 2% visible
Pressure 29.56 in
Visibility 6.2 miles
Clouds Mostly Cloudy 8000 ft
Dew Point 52 °F
Humidity 60%
Rainfall 0.00 in
Snow Depth Not available.
UV 1 out of 12
Pollen Not available.
Air Quality Not available.
Flu Activity Not available.
METAR LWSK 221400Z 14013KT 9999 BKN080 19/11 Q1001 NOSIG

More Conditions Fewer Conditions

Pressure 29.56 in
Visibility 6.2 miles
Clouds Mostly Cloudy 8000 ft
Dew Point 52 °F
Humidity 60%
Rainfall 0.00 in
Snow Depth Not available.
UV 1 out of 12
Pollen Not available.
Air Quality Not available.
Flu Activity Not available.
METAR LWSK 221400Z 14013KT 9999 BKN080 19/11 Q1001 NOSIG

More Conditions Fewer Conditions

10-Day Weather Forecast

Almanac

Astronomy

Oct. 22, 2014 Rise Set
Actual Time 6:54 AM CEST 5:42 PM CEST
Civil Twilight 6:26 AM CEST 6:10 PM CEST
Nautical Twilight 5:53 AM CEST 6:43 PM CEST
Astronomical Twilight 5:21 AM CEST 7:15 PM CEST
Moon 5:16 AM CEST 4:59 PM CEST
Length of Visible Light 11h 44m
Length of Day
10h 47m
Tomorrow will be 2m 39s shorter.
Waning Crescent, 2% of the Moon is Illuminated
Today
Waning Crescent
Oct 23
New
Oct 30
First Quarter
Nov 6
Full
Nov 14
Last Quarter

Today's Extremes

Country Highs Country Lows

Community

WunderPhotos

Upload Photos

1,763,927 photos uploaded!

WunderBlogs® & News

Nearby

Snow Depth

Not available.

Earthquake Activity

City Distance Mag. Time & Date
No recent earthquake activity has been reported nearby.
Minimum magnitude displayed is 2.5.

Coastal Water Temperatures

Place Temperature
No Stations Reporting

Nearby Weather Stations